sensor_id;sensor_type;location;lat;lon;timestamp;P1;durP1;ratioP1;P2;durP2;ratioP2
71955;SDS011;59829;50.562;6.258;2023-05-10T00:14:11;2.03;;;1.40;;
71955;SDS011;59829;50.562;6.258;2023-05-10T00:44:11;3.55;;;1.90;;
71955;SDS011;59829;50.562;6.258;2023-05-10T01:14:12;1.30;;;0.80;;
71955;SDS011;59829;50.562;6.258;2023-05-10T01:44:16;1.10;;;0.50;;
71955;SDS011;59829;50.562;6.258;2023-05-10T02:14:28;1.52;;;0.90;;
71955;SDS011;59829;50.562;6.258;2023-05-10T02:44:32;3.58;;;1.98;;
71955;SDS011;59829;50.562;6.258;2023-05-10T03:44:52;4.10;;;2.20;;
71955;SDS011;59829;50.562;6.258;2023-05-10T04:14:53;2.00;;;1.35;;
71955;SDS011;59829;50.562;6.258;2023-05-10T04:44:53;4.90;;;1.70;;
71955;SDS011;59829;50.562;6.258;2023-05-10T05:14:53;2.97;;;1.25;;
71955;SDS011;59829;50.562;6.258;2023-05-10T05:44:54;2.90;;;1.33;;
71955;SDS011;59829;50.562;6.258;2023-05-10T06:14:54;0.73;;;0.50;;
71955;SDS011;59829;50.562;6.258;2023-05-10T06:44:54;1.85;;;1.10;;
71955;SDS011;59829;50.562;6.258;2023-05-10T07:14:55;0.03;;;0.00;;
71955;SDS011;59829;50.562;6.258;2023-05-10T07:44:55;0.20;;;0.10;;
71955;SDS011;59829;50.562;6.258;2023-05-10T08:14:56;2.50;;;0.20;;
71955;SDS011;59829;50.562;6.258;2023-05-10T08:44:56;0.73;;;0.20;;
71955;SDS011;59829;50.562;6.258;2023-05-10T09:45:00;0.47;;;0.30;;
71955;SDS011;59829;50.562;6.258;2023-05-10T10:15:02;0.32;;;0.20;;
71955;SDS011;59829;50.562;6.258;2023-05-10T10:45:13;0.60;;;0.30;;
71955;SDS011;59829;50.562;6.258;2023-05-10T11:15:14;0.60;;;0.35;;
71955;SDS011;59829;50.562;6.258;2023-05-10T11:45:14;2.15;;;0.30;;
71955;SDS011;59829;50.562;6.258;2023-05-10T12:15:21;0.52;;;0.50;;
71955;SDS011;59829;50.562;6.258;2023-05-10T12:45:23;1.25;;;0.80;;
71955;SDS011;59829;50.562;6.258;2023-05-10T13:15:23;1.00;;;0.60;;
71955;SDS011;59829;50.562;6.258;2023-05-10T14:15:26;1.02;;;0.55;;
71955;SDS011;59829;50.562;6.258;2023-05-10T14:45:26;0.70;;;0.47;;
71955;SDS011;59829;50.562;6.258;2023-05-10T15:15:27;0.43;;;0.40;;
71955;SDS011;59829;50.562;6.258;2023-05-10T15:45:27;0.50;;;0.20;;
71955;SDS011;59829;50.562;6.258;2023-05-10T16:15:28;0.17;;;0.17;;
71955;SDS011;59829;50.562;6.258;2023-05-10T16:45:30;0.23;;;0.23;;
71955;SDS011;59829;50.562;6.258;2023-05-10T17:15:31;1.45;;;0.30;;
71955;SDS011;59829;50.562;6.258;2023-05-10T17:45:31;3.03;;;0.60;;
71955;SDS011;59829;50.562;6.258;2023-05-10T18:15:32;1.10;;;0.70;;
71955;SDS011;59829;50.562;6.258;2023-05-10T18:45:33;2.20;;;1.30;;
71955;SDS011;59829;50.562;6.258;2023-05-10T19:15:33;2.23;;;1.17;;
71955;SDS011;59829;50.562;6.258;2023-05-10T19:45:34;1.73;;;0.63;;
71955;SDS011;59829;50.562;6.258;2023-05-10T20:15:35;0.88;;;0.50;;
71955;SDS011;59829;50.562;6.258;2023-05-10T20:45:35;1.10;;;0.52;;
71955;SDS011;59829;50.562;6.258;2023-05-10T21:45:36;0.10;;;0.10;;
71955;SDS011;59829;50.562;6.258;2023-05-10T22:15:37;0.30;;;0.10;;
71955;SDS011;59829;50.562;6.258;2023-05-10T22:45:38;0.33;;;0.20;;
71955;SDS011;59829;50.562;6.258;2023-05-10T23:15:39;0.40;;;0.30;;
71955;SDS011;59829;50.562;6.258;2023-05-10T23:45:39;0.90;;;0.20;;
